sensor_id;sensor_type;location;lat;lon;timestamp;pressure;altitude;pressure_sealevel;temperature;humidity
17505;BME280;8870;50.950;11.762;2023-03-03T00:04:17;99003.31;;;-0.17;100.00
17505;BME280;8870;50.950;11.762;2023-03-03T00:09:35;99000.28;;;-0.26;100.00
17505;BME280;8870;50.950;11.762;2023-03-03T00:15:13;99001.16;;;-0.26;100.00
17505;BME280;8870;50.950;11.762;2023-03-03T00:20:37;98995.91;;;-0.27;100.00
17505;BME280;8870;50.950;11.762;2023-03-03T00:26:17;99000.91;;;-0.39;100.00
17505;BME280;8870;50.950;11.762;2023-03-03T00:31:37;99003.78;;;-0.43;100.00
17505;BME280;8870;50.950;11.762;2023-03-03T00:37:22;99005.97;;;-0.52;100.00
17505;BME280;8870;50.950;11.762;2023-03-03T00:42:46;99008.84;;;-0.56;100.00
17505;BME280;8870;50.950;11.762;2023-03-03T00:48:22;99009.13;;;-0.63;100.00
17505;BME280;8870;50.950;11.762;2023-03-03T00:53:43;99013.13;;;-0.71;100.00
17505;BME280;8870;50.950;11.762;2023-03-03T00:59:14;99000.72;;;-0.71;100.00
17505;BME280;8870;50.950;11.762;2023-03-03T01:04:40;99002.66;;;-0.74;100.00
17505;BME280;8870;50.950;11.762;2023-03-03T01:10:15;98991.22;;;-0.75;100.00
17505;BME280;8870;50.950;11.762;2023-03-03T01:15:34;98987.41;;;-0.87;100.00
17505;BME280;8870;50.950;11.762;2023-03-03T01:21:05;98989.16;;;-0.87;100.00
17505;BME280;8870;50.950;11.762;2023-03-03T01:26:26;99000.34;;;-1.00;100.00
17505;BME280;8870;50.950;11.762;2023-03-03T01:31:57;99011.16;;;-1.04;100.00
17505;BME280;8870;50.950;11.762;2023-03-03T01:37:15;99016.66;;;-1.09;100.00
17505;BME280;8870;50.950;11.762;2023-03-03T01:42:50;99014.19;;;-1.12;100.00
17505;BME280;8870;50.950;11.762;2023-03-03T01:48:12;99023.44;;;-1.22;100.00
17505;BME280;8870;50.950;11.762;2023-03-03T01:53:48;99020.97;;;-1.26;100.00
17505;BME280;8870;50.950;11.762;2023-03-03T01:59:12;99021.03;;;-1.27;100.00
17505;BME280;8870;50.950;11.762;2023-03-03T02:04:43;99010.53;;;-1.29;100.00
17505;BME280;8870;50.950;11.762;2023-03-03T02:10:05;98997.75;;;-1.38;100.00
17505;BME280;8870;50.950;11.762;2023-03-03T02:15:39;98998.81;;;-1.42;100.00
17505;BME280;8870;50.950;11.762;2023-03-03T02:21:01;98995.13;;;-1.38;100.00
17505;BME280;8870;50.950;11.762;2023-03-03T02:26:39;98986.97;;;-1.33;100.00
17505;BME280;8870;50.950;11.762;2023-03-03T02:31:59;98993.97;;;-1.32;100.00
17505;BME280;8870;50.950;11.762;2023-03-03T02:37:30;98991.38;;;-1.34;100.00
17505;BME280;8870;50.950;11.762;2023-03-03T02:42:51;98991.69;;;-1.40;100.00
17505;BME280;8870;50.950;11.762;2023-03-03T02:48:23;98977.41;;;-1.36;100.00
17505;BME280;8870;50.950;11.762;2023-03-03T02:53:42;98984.53;;;-1.38;100.00
17505;BME280;8870;50.950;11.762;2023-03-03T02:59:16;98998.72;;;-1.41;100.00
17505;BME280;8870;50.950;11.762;2023-03-03T03:04:49;98997.09;;;-1.43;100.00
17505;BME280;8870;50.950;11.762;2023-03-03T03:10:20;98996.38;;;-1.47;100.00
17505;BME280;8870;50.950;11.762;2023-03-03T03:15:44;98983.41;;;-1.51;100.00
17505;BME280;8870;50.950;11.762;2023-03-03T03:21:15;98988.59;;;-1.69;100.00
17505;BME280;8870;50.950;11.762;2023-03-03T03:26:34;99002.34;;;-1.81;100.00
17505;BME280;8870;50.950;11.762;2023-03-03T03:32:10;99014.00;;;-1.86;100.00
17505;BME280;8870;50.950;11.762;2023-03-03T03:37:29;99012.06;;;-1.82;100.00
17505;BME280;8870;50.950;11.762;2023-03-03T03:42:59;99012.91;;;-1.81;100.00
17505;BME280;8870;50.950;11.762;2023-03-03T03:48:21;99001.28;;;-1.77;100.00
17505;BME280;8870;50.950;11.762;2023-03-03T03:53:53;98983.81;;;-1.80;100.00
17505;BME280;8870;50.950;11.762;2023-03-03T03:59:13;98980.25;;;-1.79;100.00
17505;BME280;8870;50.950;11.762;2023-03-03T04:04:47;98983.72;;;-1.78;100.00
17505;BME280;8870;50.950;11.762;2023-03-03T04:10:18;98997.94;;;-1.81;100.00
17505;BME280;8870;50.950;11.762;2023-03-03T04:15:39;98997.06;;;-1.81;100.00
17505;BME280;8870;50.950;11.762;2023-03-03T04:21:14;99010.94;;;-1.76;100.00
17505;BME280;8870;50.950;11.762;2023-03-03T04:26:34;99013.38;;;-1.72;100.00
17505;BME280;8870;50.950;11.762;2023-03-03T04:32:04;99014.50;;;-1.77;100.00
17505;BME280;8870;50.950;11.762;2023-03-03T04:37:25;99015.53;;;-1.81;100.00
17505;BME280;8870;50.950;11.762;2023-03-03T04:42:57;99027.06;;;-1.82;100.00
17505;BME280;8870;50.950;11.762;2023-03-03T04:48:16;99023.75;;;-1.88;100.00
17505;BME280;8870;50.950;11.762;2023-03-03T04:53:50;99035.44;;;-1.93;100.00
17505;BME280;8870;50.950;11.762;2023-03-03T04:59:09;99046.53;;;-2.06;100.00
17505;BME280;8870;50.950;11.762;2023-03-03T05:04:40;99053.88;;;-2.12;100.00
17505;BME280;8870;50.950;11.762;2023-03-03T05:10:14;99054.16;;;-2.19;100.00
17505;BME280;8870;50.950;11.762;2023-03-03T05:15:33;99053.75;;;-2.30;100.00
17505;BME280;8870;50.950;11.762;2023-03-03T05:21:05;99065.22;;;-2.31;100.00
17505;BME280;8870;50.950;11.762;2023-03-03T05:26:26;99076.13;;;-2.40;100.00
17505;BME280;8870;50.950;11.762;2023-03-03T05:31:58;99074.59;;;-2.46;100.00
17505;BME280;8870;50.950;11.762;2023-03-03T05:37:16;99077.31;;;-2.48;100.00
17505;BME280;8870;50.950;11.762;2023-03-03T05:42:50;99085.34;;;-2.51;100.00
17505;BME280;8870;50.950;11.762;2023-03-03T05:48:08;99088.69;;;-2.45;100.00
17505;BME280;8870;50.950;11.762;2023-03-03T05:53:39;99098.03;;;-2.38;100.00
17505;BME280;8870;50.950;11.762;2023-03-03T05:59:00;99087.38;;;-2.35;100.00
17505;BME280;8870;50.950;11.762;2023-03-03T06:04:31;99100.28;;;-2.29;100.00
17505;BME280;8870;50.950;11.762;2023-03-03T06:10:03;99105.78;;;-2.34;100.00
17505;BME280;8870;50.950;11.762;2023-03-03T06:15:29;99113.06;;;-2.40;100.00
17505;BME280;8870;50.950;11.762;2023-03-03T06:20:59;99100.03;;;-2.43;100.00
17505;BME280;8870;50.950;11.762;2023-03-03T06:26:17;99104.94;;;-2.34;100.00
17505;BME280;8870;50.950;11.762;2023-03-03T06:31:51;99117.94;;;-2.29;100.00
17505;BME280;8870;50.950;11.762;2023-03-03T06:37:10;99115.91;;;-2.23;100.00
17505;BME280;8870;50.950;11.762;2023-03-03T06:42:41;99121.88;;;-2.18;100.00
17505;BME280;8870;50.950;11.762;2023-03-03T06:48:02;99109.03;;;-2.27;100.00
17505;BME280;8870;50.950;11.762;2023-03-03T06:53:33;99109.03;;;-2.27;100.00
17505;BME280;8870;50.950;11.762;2023-03-03T06:58:53;99119.38;;;-2.22;100.00
17505;BME280;8870;50.950;11.762;2023-03-03T07:04:30;99123.81;;;-2.23;100.00
17505;BME280;8870;50.950;11.762;2023-03-03T07:09:50;99127.16;;;-2.18;100.00
17505;BME280;8870;50.950;11.762;2023-03-03T07:15:24;99117.97;;;-2.09;100.00
17505;BME280;8870;50.950;11.762;2023-03-03T07:20:49;99116.13;;;-2.07;100.00
17505;BME280;8870;50.950;11.762;2023-03-03T07:26:24;99129.59;;;-2.13;100.00
17505;BME280;8870;50.950;11.762;2023-03-03T07:31:46;99134.00;;;-2.13;100.00
17505;BME280;8870;50.950;11.762;2023-03-03T07:37:28;99147.78;;;-2.27;100.00
17505;BME280;8870;50.950;11.762;2023-03-03T07:42:48;99137.59;;;-2.37;100.00
17505;BME280;8870;50.950;11.762;2023-03-03T07:48:24;99145.53;;;-2.38;100.00
17505;BME280;8870;50.950;11.762;2023-03-03T07:53:46;99147.47;;;-2.42;100.00
17505;BME280;8870;50.950;11.762;2023-03-03T07:59:21;99153.22;;;-2.32;100.00
17505;BME280;8870;50.950;11.762;2023-03-03T08:04:41;99151.81;;;-2.41;100.00
17505;BME280;8870;50.950;11.762;2023-03-03T08:10:34;99151.19;;;-2.48;100.00
17505;BME280;8870;50.950;11.762;2023-03-03T08:15:56;99137.41;;;-2.32;100.00
17505;BME280;8870;50.950;11.762;2023-03-03T08:21:29;99138.66;;;-2.20;100.00
17505;BME280;8870;50.950;11.762;2023-03-03T08:27:04;99130.94;;;-2.25;100.00
17505;BME280;8870;50.950;11.762;2023-03-03T08:32:23;99128.81;;;-2.17;100.00
17505;BME280;8870;50.950;11.762;2023-03-03T08:37:54;99143.41;;;-2.06;100.00
17505;BME280;8870;50.950;11.762;2023-03-03T08:43:15;99158.25;;;-2.04;100.00
17505;BME280;8870;50.950;11.762;2023-03-03T08:48:46;99153.41;;;-2.14;100.00
17505;BME280;8870;50.950;11.762;2023-03-03T08:54:06;99143.19;;;-2.02;100.00
17505;BME280;8870;50.950;11.762;2023-03-03T08:59:40;99151.25;;;-2.05;100.00
17505;BME280;8870;50.950;11.762;2023-03-03T09:04:59;99157.09;;;-2.19;100.00
17505;BME280;8870;50.950;11.762;2023-03-03T09:10:30;99159.25;;;-2.28;100.00
17505;BME280;8870;50.950;11.762;2023-03-03T09:15:52;99155.38;;;-2.20;100.00
17505;BME280;8870;50.950;11.762;2023-03-03T09:21:25;99154.00;;;-2.08;100.00
17505;BME280;8870;50.950;11.762;2023-03-03T09:26:47;99153.28;;;-2.11;100.00
17505;BME280;8870;50.950;11.762;2023-03-03T09:32:32;99135.97;;;-2.19;100.00
17505;BME280;8870;50.950;11.762;2023-03-03T09:37:52;99132.84;;;-2.06;100.00
17505;BME280;8870;50.950;11.762;2023-03-03T09:43:31;99146.69;;;-2.01;100.00
17505;BME280;8870;50.950;11.762;2023-03-03T09:49:03;99132.44;;;-1.97;100.00
17505;BME280;8870;50.950;11.762;2023-03-03T09:54:49;99134.81;;;-1.91;100.00
17505;BME280;8870;50.950;11.762;2023-03-03T10:00:27;99140.28;;;-1.75;100.00
17505;BME280;8870;50.950;11.762;2023-03-03T10:06:10;99135.34;;;-1.62;100.00
17505;BME280;8870;50.950;11.762;2023-03-03T10:11:47;99127.31;;;-1.40;100.00
17505;BME280;8870;50.950;11.762;2023-03-03T10:17:24;99135.59;;;-1.27;100.00
17505;BME280;8870;50.950;11.762;2023-03-03T10:23:05;99129.03;;;-1.18;100.00
17505;BME280;8870;50.950;11.762;2023-03-03T10:29:02;99126.31;;;-1.16;100.00
17505;BME280;8870;50.950;11.762;2023-03-03T10:34:52;99104.84;;;-1.10;100.00
17505;BME280;8870;50.950;11.762;2023-03-03T10:40:21;99104.72;;;-1.07;100.00
17505;BME280;8870;50.950;11.762;2023-03-03T10:46:07;99096.16;;;-1.12;100.00
17505;BME280;8870;50.950;11.762;2023-03-03T10:51:34;99106.78;;;-0.95;100.00
17505;BME280;8870;50.950;11.762;2023-03-03T10:57:15;99107.00;;;-0.99;100.00
17505;BME280;8870;50.950;11.762;2023-03-03T11:02:45;99104.00;;;-0.91;100.00
17505;BME280;8870;50.950;11.762;2023-03-03T11:08:22;99097.00;;;-0.93;100.00
17505;BME280;8870;50.950;11.762;2023-03-03T11:13:50;99106.72;;;-0.93;100.00
17505;BME280;8870;50.950;11.762;2023-03-03T11:19:49;99084.13;;;-0.81;100.00
17505;BME280;8870;50.950;11.762;2023-03-03T11:25:25;99091.06;;;-0.79;100.00
17505;BME280;8870;50.950;11.762;2023-03-03T11:31:08;99096.56;;;-0.64;100.00
17505;BME280;8870;50.950;11.762;2023-03-03T11:36:32;99096.19;;;-0.56;100.00
17505;BME280;8870;50.950;11.762;2023-03-03T11:42:14;99088.16;;;-0.55;100.00
17505;BME280;8870;50.950;11.762;2023-03-03T11:47:53;99077.81;;;-0.59;100.00
17505;BME280;8870;50.950;11.762;2023-03-03T12:05:14;99051.59;;;-0.29;100.00
17505;BME280;8870;50.950;11.762;2023-03-03T12:10:40;99051.97;;;-0.37;100.00
17505;BME280;8870;50.950;11.762;2023-03-03T12:16:18;99054.53;;;-0.35;100.00
17505;BME280;8870;50.950;11.762;2023-03-03T12:21:55;99046.06;;;-0.24;100.00
17505;BME280;8870;50.950;11.762;2023-03-03T12:27:36;99040.69;;;-0.05;100.00
17505;BME280;8870;50.950;11.762;2023-03-03T12:33:11;99040.16;;;0.06;100.00
17505;BME280;8870;50.950;11.762;2023-03-03T12:38:50;99039.03;;;0.10;100.00
17505;BME280;8870;50.950;11.762;2023-03-03T12:44:17;99037.50;;;0.06;100.00
17505;BME280;8870;50.950;11.762;2023-03-03T12:50:02;99042.31;;;0.15;100.00
17505;BME280;8870;50.950;11.762;2023-03-03T12:55:32;99031.38;;;0.21;100.00
17505;BME280;8870;50.950;11.762;2023-03-03T13:01:16;99025.06;;;0.24;100.00
17505;BME280;8870;50.950;11.762;2023-03-03T13:06:54;99023.53;;;0.20;100.00
17505;BME280;8870;50.950;11.762;2023-03-03T13:12:35;99019.44;;;0.30;100.00
17505;BME280;8870;50.950;11.762;2023-03-03T13:18:17;99022.47;;;0.40;100.00
17505;BME280;8870;50.950;11.762;2023-03-03T13:23:53;99019.84;;;0.40;100.00
17505;BME280;8870;50.950;11.762;2023-03-03T13:29:19;99021.44;;;0.42;100.00
17505;BME280;8870;50.950;11.762;2023-03-03T13:34:56;99019.31;;;0.49;100.00
17505;BME280;8870;50.950;11.762;2023-03-03T13:40:22;99010.75;;;0.44;100.00
17505;BME280;8870;50.950;11.762;2023-03-03T13:46:05;99004.88;;;0.39;100.00
17505;BME280;8870;50.950;11.762;2023-03-03T13:51:33;99003.16;;;0.38;100.00
17505;BME280;8870;50.950;11.762;2023-03-03T13:57:19;99001.97;;;0.43;100.00
17505;BME280;8870;50.950;11.762;2023-03-03T14:09:10;98989.88;;;0.38;100.00
17505;BME280;8870;50.950;11.762;2023-03-03T14:14:37;98995.09;;;0.39;100.00
17505;BME280;8870;50.950;11.762;2023-03-03T14:20:18;98988.78;;;0.42;100.00
17505;BME280;8870;50.950;11.762;2023-03-03T14:25:56;98984.94;;;0.48;100.00
17505;BME280;8870;50.950;11.762;2023-03-03T14:31:28;98982.06;;;0.52;100.00
17505;BME280;8870;50.950;11.762;2023-03-03T14:36:48;98974.25;;;0.49;100.00
17505;BME280;8870;50.950;11.762;2023-03-03T14:42:34;98980.81;;;0.42;100.00
17505;BME280;8870;50.950;11.762;2023-03-03T14:48:09;98980.22;;;0.37;100.00
17505;BME280;8870;50.950;11.762;2023-03-03T14:53:42;98973.31;;;0.34;100.00
17505;BME280;8870;50.950;11.762;2023-03-03T14:59:20;98966.34;;;0.32;100.00
17505;BME280;8870;50.950;11.762;2023-03-03T15:05:11;98960.13;;;0.33;100.00
17505;BME280;8870;50.950;11.762;2023-03-03T15:10:44;98962.50;;;0.37;100.00
17505;BME280;8870;50.950;11.762;2023-03-03T15:16:10;98945.78;;;0.37;100.00
17505;BME280;8870;50.950;11.762;2023-03-03T15:21:47;98943.53;;;0.29;100.00
17505;BME280;8870;50.950;11.762;2023-03-03T15:27:12;98943.22;;;0.35;100.00
17505;BME280;8870;50.950;11.762;2023-03-03T15:32:56;98928.31;;;0.33;100.00
17505;BME280;8870;50.950;11.762;2023-03-03T15:38:24;98925.59;;;0.34;100.00
17505;BME280;8870;50.950;11.762;2023-03-03T15:44:05;98925.66;;;0.33;100.00
17505;BME280;8870;50.950;11.762;2023-03-03T15:49:50;98927.38;;;0.34;100.00
17505;BME280;8870;50.950;11.762;2023-03-03T15:55:34;98923.94;;;0.32;100.00
17505;BME280;8870;50.950;11.762;2023-03-03T16:01:02;98925.59;;;0.34;100.00
17505;BME280;8870;50.950;11.762;2023-03-03T16:06:47;98923.00;;;0.33;100.00
17505;BME280;8870;50.950;11.762;2023-03-03T16:12:27;98918.75;;;0.30;100.00
17505;BME280;8870;50.950;11.762;2023-03-03T16:17:53;98917.81;;;0.31;100.00
17505;BME280;8870;50.950;11.762;2023-03-03T16:23:38;98922.59;;;0.24;100.00
17505;BME280;8870;50.950;11.762;2023-03-03T16:29:19;98921.81;;;0.22;100.00
17505;BME280;8870;50.950;11.762;2023-03-03T16:34:56;98937.94;;;0.18;100.00
17505;BME280;8870;50.950;11.762;2023-03-03T16:40:20;98953.16;;;0.14;100.00
17505;BME280;8870;50.950;11.762;2023-03-03T16:45:57;98965.25;;;0.02;100.00
17505;BME280;8870;50.950;11.762;2023-03-03T16:51:27;98958.19;;;0.03;100.00
17505;BME280;8870;50.950;11.762;2023-03-03T16:57:16;98963.47;;;0.03;100.00
17505;BME280;8870;50.950;11.762;2023-03-03T17:09:14;98967.56;;;-0.08;100.00
17505;BME280;8870;50.950;11.762;2023-03-03T17:14:54;98969.19;;;-0.05;100.00
17505;BME280;8870;50.950;11.762;2023-03-03T17:20:33;98977.97;;;-0.05;100.00
17505;BME280;8870;50.950;11.762;2023-03-03T17:26:03;98989.34;;;-0.03;100.00
17505;BME280;8870;50.950;11.762;2023-03-03T17:31:48;98977.38;;;-0.10;100.00
17505;BME280;8870;50.950;11.762;2023-03-03T17:37:19;98987.28;;;-0.13;100.00
17505;BME280;8870;50.950;11.762;2023-03-03T17:42:59;98992.34;;;-0.09;100.00
17505;BME280;8870;50.950;11.762;2023-03-03T17:48:46;98992.34;;;-0.09;100.00
17505;BME280;8870;50.950;11.762;2023-03-03T17:54:29;98992.81;;;-0.18;100.00
17505;BME280;8870;50.950;11.762;2023-03-03T18:00:05;98990.91;;;-0.16;100.00
17505;BME280;8870;50.950;11.762;2023-03-03T18:06:06;98987.66;;;-0.21;100.00
17505;BME280;8870;50.950;11.762;2023-03-03T18:11:39;98989.44;;;-0.22;100.00
17505;BME280;8870;50.950;11.762;2023-03-03T18:17:32;98989.44;;;-0.22;100.00
17505;BME280;8870;50.950;11.762;2023-03-03T18:22:54;98997.72;;;-0.28;100.00
17505;BME280;8870;50.950;11.762;2023-03-03T18:28:38;99002.13;;;-0.28;100.00
17505;BME280;8870;50.950;11.762;2023-03-03T18:34:02;98998.41;;;-0.24;100.00
17505;BME280;8870;50.950;11.762;2023-03-03T18:39:44;99003.94;;;-0.29;100.00
17505;BME280;8870;50.950;11.762;2023-03-03T18:51:07;98991.53;;;-0.28;100.00
17505;BME280;8870;50.950;11.762;2023-03-03T18:56:45;98988.34;;;-0.35;100.00
17505;BME280;8870;50.950;11.762;2023-03-03T19:02:23;99006.03;;;-0.36;100.00
17505;BME280;8870;50.950;11.762;2023-03-03T19:07:50;99008.94;;;-0.40;100.00
17505;BME280;8870;50.950;11.762;2023-03-03T19:13:41;99003.72;;;-0.42;100.00
17505;BME280;8870;50.950;11.762;2023-03-03T19:19:06;99007.22;;;-0.41;100.00
17505;BME280;8870;50.950;11.762;2023-03-03T19:24:38;99001.06;;;-0.42;100.00
17505;BME280;8870;50.950;11.762;2023-03-03T19:30:16;99011.81;;;-0.45;100.00
17505;BME280;8870;50.950;11.762;2023-03-03T19:36:10;99012.84;;;-0.48;100.00
17505;BME280;8870;50.950;11.762;2023-03-03T19:41:44;99005.66;;;-0.45;100.00
17505;BME280;8870;50.950;11.762;2023-03-03T19:47:32;99011.97;;;-0.48;100.00
17505;BME280;8870;50.950;11.762;2023-03-03T19:53:01;99006.66;;;-0.48;100.00
17505;BME280;8870;50.950;11.762;2023-03-03T19:58:43;99010.38;;;-0.52;100.00
17505;BME280;8870;50.950;11.762;2023-03-03T20:04:15;99008.53;;;-0.50;100.00
17505;BME280;8870;50.950;11.762;2023-03-03T20:09:54;98995.28;;;-0.50;100.00
17505;BME280;8870;50.950;11.762;2023-03-03T20:15:17;99002.28;;;-0.49;100.00
17505;BME280;8870;50.950;11.762;2023-03-03T20:21:03;99000.66;;;-0.52;100.00
17505;BME280;8870;50.950;11.762;2023-03-03T20:26:28;99001.44;;;-0.50;100.00
17505;BME280;8870;50.950;11.762;2023-03-03T20:32:09;99009.06;;;-0.43;100.00
17505;BME280;8870;50.950;11.762;2023-03-03T20:37:40;99004.81;;;-0.46;100.00
17505;BME280;8870;50.950;11.762;2023-03-03T20:43:29;99007.22;;;-0.41;100.00
17505;BME280;8870;50.950;11.762;2023-03-03T20:49:01;99000.91;;;-0.39;100.00
17505;BME280;8870;50.950;11.762;2023-03-03T20:54:42;98998.00;;;-0.34;100.00
17505;BME280;8870;50.950;11.762;2023-03-03T21:00:06;98999.72;;;-0.33;100.00
17505;BME280;8870;50.950;11.762;2023-03-03T21:05:55;98991.72;;;-0.32;100.00
17505;BME280;8870;50.950;11.762;2023-03-03T21:11:42;99010.41;;;-0.35;100.00
17505;BME280;8870;50.950;11.762;2023-03-03T21:17:24;98995.47;;;-0.36;100.00
17505;BME280;8870;50.950;11.762;2023-03-03T21:22:57;98997.16;;;-0.35;100.00
17505;BME280;8870;50.950;11.762;2023-03-03T21:28:21;98993.50;;;-0.32;100.00
17505;BME280;8870;50.950;11.762;2023-03-03T21:33:55;98995.53;;;-0.37;100.00
17505;BME280;8870;50.950;11.762;2023-03-03T21:39:43;98993.66;;;-0.35;100.00
17505;BME280;8870;50.950;11.762;2023-03-03T21:45:18;98987.28;;;-0.31;100.00
17505;BME280;8870;50.950;11.762;2023-03-03T21:50:38;98987.66;;;-0.21;100.00
17505;BME280;8870;50.950;11.762;2023-03-03T21:56:11;98988.91;;;-0.11;100.00
17505;BME280;8870;50.950;11.762;2023-03-03T22:01:32;98982.81;;;-0.13;100.00
17505;BME280;8870;50.950;11.762;2023-03-03T22:07:04;98980.94;;;-0.11;100.00
17505;BME280;8870;50.950;11.762;2023-03-03T22:12:35;98974.03;;;-0.13;100.00
17505;BME280;8870;50.950;11.762;2023-03-03T22:17:55;98986.34;;;-0.12;100.00
17505;BME280;8870;50.950;11.762;2023-03-03T22:23:27;98969.72;;;-0.16;100.00
17505;BME280;8870;50.950;11.762;2023-03-03T22:28:45;98967.81;;;-0.12;100.00
17505;BME280;8870;50.950;11.762;2023-03-03T22:34:11;98970.22;;;-0.08;100.00
17505;BME280;8870;50.950;11.762;2023-03-03T22:39:37;98964.13;;;-0.10;100.00
17505;BME280;8870;50.950;11.762;2023-03-03T22:44:55;98969.47;;;-0.11;100.00
17505;BME280;8870;50.950;11.762;2023-03-03T22:50:28;98964.63;;;-0.19;100.00
17505;BME280;8870;50.950;11.762;2023-03-03T22:55:47;98959.47;;;-0.22;100.00
17505;BME280;8870;50.950;11.762;2023-03-03T23:01:18;98954.25;;;-0.24;100.00
17505;BME280;8870;50.950;11.762;2023-03-03T23:06:45;98951.19;;;-0.16;100.00
17505;BME280;8870;50.950;11.762;2023-03-03T23:12:18;98954.16;;;-0.22;100.00
17505;BME280;8870;50.950;11.762;2023-03-03T23:17:36;98952.59;;;-0.26;100.00
17505;BME280;8870;50.950;11.762;2023-03-03T23:23:09;98957.84;;;-0.25;100.00
17505;BME280;8870;50.950;11.762;2023-03-03T23:28:28;98952.47;;;-0.23;100.00
17505;BME280;8870;50.950;11.762;2023-03-03T23:33:59;98950.91;;;-0.27;100.00
17505;BME280;8870;50.950;11.762;2023-03-03T23:39:20;98940.63;;;-0.34;100.00
17505;BME280;8870;50.950;11.762;2023-03-03T23:44:51;98942.94;;;-0.27;100.00
17505;BME280;8870;50.950;11.762;2023-03-03T23:50:11;98933.47;;;-0.32;100.00
17505;BME280;8870;50.950;11.762;2023-03-03T23:55:45;98937.84;;;-0.30;100.00
